This is the latest recevied weather packets stored in our database for station/object IW1QQG-13. If no packets are shown the sender has not sent any weather packets the latest 10 day(s).
| Time | Temp. | Humidity | Pressure | Rain* | Wind** | Luminosity | Snow |
|---|---|---|---|---|---|---|---|
| 1777453818 | 21.67° C | 57% | 1015.2 hPa | 0 mm | - | 57 W/m² | - |
| 1777453218 | 22.22° C | 55% | 1014.9 hPa | 0 mm | - | 16 W/m² | - |
| 1777452618 | 22.22° C | 52% | 1014.9 hPa | 0 mm | - | - | - |
| 1777452018 | 22.22° C | 54% | 1014.9 hPa | 0 mm | - | - | - |
| 1777451418 | 22.22° C | 57% | 1014.9 hPa | 0 mm | - | - | - |
| 1777450818 | 22.22° C | 58% | 1015.2 hPa | 0 mm | - | - | - |
| 1777450218 | 21.67° C | 61% | 1015.2 hPa | 0 mm | - | - | - |
| 1777449618 | 21.11° C | 60% | 1015.2 hPa | 0 mm | - | - | - |
| 1777449018 | 21.67° C | 52% | 1015.2 hPa | 0 mm | - | - | - |
| 1777448418 | 21.11° C | 55% | 1015.2 hPa | 0 mm | - | - | - |
| 1777447818 | 20.56° C | 57% | 1015.2 hPa | 0 mm | - | - | - |
| 1777447218 | 20° C | 54% | 1015.2 hPa | 0 mm | - | - | - |
| 1777446618 | 20° C | 57% | 1015.2 hPa | 0 mm | - | - | - |
| 1777446018 | 20° C | 55% | 1015.2 hPa | 0 mm | - | 302 W/m² | - |
| 1777445418 | 20° C | 54% | 1015.2 hPa | 0 mm | - | 270 W/m² | - |
| 1777444818 | 19.44° C | 54% | 1015.2 hPa | 0 mm | - | 242 W/m² | - |
| 1777444218 | 18.89° C | 56% | 1014.9 hPa | 0 mm | - | 213 W/m² | - |
| 1777443618 | 18.33° C | 59% | 1014.9 hPa | 0 mm | - | 185 W/m² | - |
| 1777443018 | 17.78° C | 60% | 1014.9 hPa | 0 mm | - | 158 W/m² | - |
| 1777442418 | 17.78° C | 59% | 1014.9 hPa | 0 mm | - | 75 W/m² | - |
| 1777441818 | 16.67° C | 62% | 1014.6 hPa | 0 mm | - | 50 W/m² | - |
| 1777441218 | 16.67° C | 62% | 1014.6 hPa | 0 mm | - | 90 W/m² | - |
| 1777440618 | 16.11° C | 64% | 1014.6 hPa | 0 mm | - | 72 W/m² | - |
| 1777440018 | 15° C | 63% | 1014.6 hPa | 0 mm | - | 38 W/m² | - |
| 1777439418 | 13.89° C | 69% | 1014.6 hPa | 0 mm | - | 30 W/m² | - |
* Rain latest hour (hover to see other rain measurements)
** Current wind speed in m/s (hover to see current wind gust speed)